createdAt,value
2022-08-22T00:01:02.364Z,18.19
2022-08-22T00:02:53.684Z,20.67
2022-08-22T00:03:00.472Z,21.47
2022-08-22T00:03:01.921Z,21.52
2022-08-22T00:03:46.440Z,18.18
2022-08-22T00:06:31.248Z,18.16
2022-08-22T00:10:03.405Z,18.15
2022-08-22T00:13:04.419Z,18.13
2022-08-22T00:15:52.487Z,18.09
2022-08-22T00:18:34.697Z,18.05
2022-08-22T00:21:34.789Z,18.05
2022-08-22T00:24:23.213Z,18.05
2022-08-22T00:27:16.981Z,18.03
2022-08-22T00:30:04.282Z,18.01
2022-08-22T00:32:50.036Z,18.00
2022-08-22T00:36:10.230Z,17.99
2022-08-22T00:38:50.854Z,17.96
2022-08-22T00:41:54.979Z,17.93
2022-08-22T00:44:39.667Z,17.88
2022-08-22T00:47:36.370Z,17.86
2022-08-22T00:50:42.014Z,17.82
2022-08-22T00:53:36.498Z,17.81
2022-08-22T00:56:27.622Z,17.81
2022-08-22T00:59:23.468Z,17.82
2022-08-22T01:02:11.089Z,17.83
2022-08-22T01:04:52.117Z,17.83
2022-08-22T01:07:44.557Z,17.85
2022-08-22T01:10:35.917Z,17.86
2022-08-22T01:13:34.525Z,17.87
2022-08-22T01:16:35.046Z,17.88
2022-08-22T01:19:23.081Z,17.88
2022-08-22T01:22:48.963Z,17.90
2022-08-22T01:26:19.503Z,17.89
2022-08-22T01:29:28.213Z,17.88
2022-08-22T01:32:31.010Z,17.86
2022-08-22T01:35:50.458Z,17.84
2022-08-22T01:38:41.582Z,17.81
2022-08-22T01:41:35.584Z,17.79
2022-08-22T01:44:12.113Z,17.77
2022-08-22T01:47:11.963Z,17.78
2022-08-22T01:49:51.791Z,17.78
2022-08-22T01:52:50.807Z,17.77
2022-08-22T01:55:34.673Z,17.76
2022-08-22T01:58:15.672Z,17.74
2022-08-22T02:01:22.090Z,17.73
2022-08-22T02:04:28.724Z,17.73
2022-08-22T02:07:53.394Z,17.68
2022-08-22T02:11:07.151Z,17.64
2022-08-22T02:13:54.974Z,17.62
2022-08-22T02:16:30.793Z,17.62
2022-08-22T02:19:15.792Z,17.63
2022-08-22T02:22:50.410Z,17.63
2022-08-22T02:25:30.627Z,17.61
2022-08-22T02:28:28.121Z,17.58
2022-08-22T02:31:17.047Z,17.55
2022-08-22T02:33:46.799Z,17.52
2022-08-22T02:36:25.081Z,17.52
2022-08-22T02:39:32.321Z,17.49
2022-08-22T02:42:28.403Z,17.50
2022-08-22T02:45:20.795Z,17.48
2022-08-22T02:48:11.556Z,17.48
2022-08-22T02:50:51.605Z,17.49
2022-08-22T02:53:33.652Z,17.51
2022-08-22T02:56:12.455Z,17.53
2022-08-22T02:58:45.193Z,17.53
2022-08-22T03:01:29.117Z,17.53
2022-08-22T03:04:18.024Z,17.54
2022-08-22T03:07:14.643Z,17.52
2022-08-22T03:10:10.204Z,17.52
2022-08-22T03:13:09.631Z,17.54
2022-08-22T03:16:10.858Z,17.54
2022-08-22T03:19:31.626Z,17.50
2022-08-22T03:22:08.395Z,17.47
2022-08-22T03:25:02.501Z,17.48
2022-08-22T03:27:42.272Z,17.49
2022-08-22T03:30:30.945Z,17.51
2022-08-22T03:33:27.641Z,17.51
2022-08-22T03:36:17.620Z,17.52
2022-08-22T03:39:17.565Z,17.51
2022-08-22T03:42:09.481Z,17.46
2022-08-22T03:45:14.045Z,17.45
2022-08-22T03:48:17.644Z,17.45
2022-08-22T03:51:15.433Z,17.42
2022-08-22T03:54:19.254Z,17.39
2022-08-22T03:57:06.120Z,17.36
2022-08-22T03:59:54.139Z,17.34
2022-08-22T04:03:07.311Z,17.28
2022-08-22T04:06:25.767Z,17.21
2022-08-22T04:09:32.773Z,17.11
2022-08-22T04:12:27.146Z,17.06
2022-08-22T04:15:26.577Z,16.97
2022-08-22T04:18:14.569Z,16.88
2022-08-22T04:21:02.269Z,16.83
2022-08-22T04:24:15.447Z,16.77
2022-08-22T04:26:50.799Z,16.72
2022-08-22T04:29:55.261Z,16.71
2022-08-22T04:32:25.352Z,16.70
2022-08-22T04:35:11.984Z,16.66
2022-08-22T04:37:52.362Z,16.63
2022-08-22T04:40:27.593Z,16.61
2022-08-22T04:43:09.052Z,16.57
2022-08-22T04:45:46.189Z,16.53
2022-08-22T04:48:29.602Z,16.50
2022-08-22T04:51:15.560Z,16.47
2022-08-22T04:54:39.894Z,16.45
2022-08-22T04:57:31.134Z,16.43
2022-08-22T05:00:05.997Z,16.38
2022-08-22T05:02:38.874Z,16.39
2022-08-22T05:05:16.558Z,16.39
2022-08-22T05:07:55.437Z,16.42
2022-08-22T05:10:42.106Z,16.47
2022-08-22T05:13:21.609Z,16.53
2022-08-22T05:15:54.730Z,16.61
2022-08-22T05:18:40.310Z,16.70
2022-08-22T05:21:13.932Z,16.78
2022-08-22T05:24:03.457Z,16.85
2022-08-22T05:26:38.972Z,16.89
2022-08-22T05:29:09.522Z,16.91
2022-08-22T05:31:49.246Z,16.93
2022-08-22T05:34:26.666Z,16.96
2022-08-22T05:37:04.605Z,16.99
2022-08-22T05:39:40.424Z,17.04
2022-08-22T05:42:15.919Z,17.10
2022-08-22T05:44:43.201Z,17.14
2022-08-22T05:47:23.539Z,17.19
2022-08-22T05:50:05.323Z,17.25
2022-08-22T05:52:40.972Z,17.31
2022-08-22T05:55:25.687Z,17.39
2022-08-22T05:58:11.645Z,17.49
2022-08-22T06:00:45.170Z,17.57
2022-08-22T06:03:27.668Z,17.65
2022-08-22T06:06:03.308Z,17.73
2022-08-22T06:09:16.545Z,17.84
2022-08-22T06:11:55.080Z,17.94
2022-08-22T06:15:20.977Z,18.04
2022-08-22T06:17:55.816Z,18.06
2022-08-22T06:20:34.926Z,18.06
2022-08-22T06:23:05.435Z,18.11
2022-08-22T06:25:40.737Z,18.15
2022-08-22T06:28:16.789Z,18.17
2022-08-22T06:30:47.631Z,18.24
2022-08-22T06:33:23.913Z,18.36
2022-08-22T06:36:20.578Z,18.45
2022-08-22T06:39:16.920Z,18.56
2022-08-22T06:41:59.111Z,18.58
2022-08-22T06:44:50.479Z,18.57
2022-08-22T06:47:33.558Z,18.58
2022-08-22T06:50:15.219Z,18.59
2022-08-22T06:53:26.671Z,18.64
2022-08-22T06:56:07.421Z,18.66
2022-08-22T06:58:45.867Z,18.71
2022-08-22T07:01:25.249Z,18.78
2022-08-22T07:03:59.401Z,18.82
2022-08-22T07:06:41.292Z,18.90
2022-08-22T07:09:19.346Z,19.00
2022-08-22T07:11:46.511Z,19.06
2022-08-22T07:14:18.419Z,19.16
2022-08-22T07:17:02.122Z,19.26
2022-08-22T07:19:38.126Z,19.34
2022-08-22T07:22:30.423Z,19.41
2022-08-22T07:25:14.508Z,19.51
2022-08-22T07:28:08.569Z,19.65
2022-08-22T07:31:02.680Z,19.67
2022-08-22T07:33:50.412Z,19.62
2022-08-22T07:36:46.882Z,19.59
2022-08-22T07:39:30.654Z,19.68
2022-08-22T07:42:17.454Z,19.77
2022-08-22T07:45:08.263Z,19.81
2022-08-22T07:47:52.642Z,19.87
2022-08-22T07:50:30.028Z,19.99
2022-08-22T07:53:16.808Z,20.08
2022-08-22T07:55:49.658Z,20.18
2022-08-22T07:58:19.311Z,20.25
2022-08-22T08:00:50.279Z,20.41
2022-08-22T08:03:23.024Z,20.61
2022-08-22T08:05:50.533Z,20.79
2022-08-22T08:08:43.936Z,20.98
2022-08-22T08:11:16.922Z,21.22
2022-08-22T08:13:52.770Z,21.53
2022-08-22T08:16:25.179Z,21.98
2022-08-22T08:18:57.031Z,22.54
2022-08-22T08:21:53.460Z,23.11
2022-08-22T08:24:31.552Z,23.83
2022-08-22T08:27:32.973Z,24.42
2022-08-22T08:30:15.289Z,24.65
2022-08-22T08:32:49.361Z,24.72
2022-08-22T08:35:25.663Z,24.85
2022-08-22T08:38:08.664Z,25.26
2022-08-22T08:41:00.359Z,25.78
2022-08-22T08:43:40.531Z,26.24
2022-08-22T08:46:25.585Z,26.63
2022-08-22T08:49:30.794Z,26.74
2022-08-22T08:52:25.172Z,26.54
2022-08-22T08:55:19.991Z,26.25
2022-08-22T08:58:40.368Z,25.99
2022-08-22T09:01:16.458Z,25.92
2022-08-22T09:04:54.682Z,26.23
2022-08-22T09:07:44.015Z,26.60
2022-08-22T09:10:47.304Z,26.78
2022-08-22T09:13:40.657Z,26.68
2022-08-22T09:17:04.911Z,26.41
2022-08-22T09:19:55.686Z,26.39
2022-08-22T09:22:50.157Z,26.27
2022-08-22T09:25:38.608Z,25.93
2022-08-22T09:28:40.977Z,25.51
2022-08-22T09:31:44.954Z,25.26
2022-08-22T09:34:29.626Z,25.07
2022-08-22T09:37:17.897Z,24.92
2022-08-22T09:40:06.451Z,24.90
2022-08-22T09:43:01.946Z,24.92
2022-08-22T09:45:40.717Z,24.95
2022-08-22T09:48:39.662Z,25.01
2022-08-22T09:52:15.412Z,25.03
2022-08-22T09:55:08.596Z,25.10
2022-08-22T09:57:50.629Z,25.07
2022-08-22T10:00:34.463Z,25.08
2022-08-22T10:03:33.248Z,25.15
2022-08-22T10:06:20.034Z,25.34
2022-08-22T10:09:03.518Z,25.46
2022-08-22T10:11:45.843Z,25.58
2022-08-22T10:15:00.436Z,25.73
2022-08-22T10:17:41.132Z,25.72
2022-08-22T10:21:09.263Z,25.81
2022-08-22T10:23:52.735Z,26.02
2022-08-22T10:26:50.819Z,26.24
2022-08-22T10:30:05.229Z,26.60
2022-08-22T10:32:53.502Z,26.88
2022-08-22T10:36:07.796Z,27.00
2022-08-22T10:38:53.358Z,26.93
2022-08-22T10:42:00.620Z,27.02
2022-08-22T10:44:42.193Z,27.05
2022-08-22T10:47:21.290Z,26.95
2022-08-22T10:50:10.801Z,26.95
2022-08-22T10:53:35.413Z,26.91
2022-08-22T10:56:16.143Z,26.81
2022-08-22T10:59:18.374Z,26.93
2022-08-22T11:02:27.609Z,27.00
2022-08-22T11:05:14.622Z,27.04
2022-08-22T11:07:50.256Z,26.96
2022-08-22T11:10:30.421Z,26.99
2022-08-22T11:13:29.298Z,27.16
2022-08-22T11:16:13.964Z,27.27
2022-08-22T11:19:15.847Z,27.37
2022-08-22T11:21:51.161Z,27.31
2022-08-22T11:25:02.352Z,27.31
2022-08-22T11:27:55.061Z,27.39
2022-08-22T11:30:59.959Z,27.38
2022-08-22T11:33:47.768Z,27.50
2022-08-22T11:36:31.486Z,27.55
2022-08-22T11:39:03.223Z,27.51
2022-08-22T11:41:59.325Z,27.41
2022-08-22T11:44:50.282Z,27.36
2022-08-22T11:47:27.191Z,27.51
2022-08-22T11:50:23.284Z,27.64
2022-08-22T11:53:15.022Z,27.64
2022-08-22T11:56:15.700Z,27.58
2022-08-22T11:59:07.128Z,27.43
2022-08-22T12:01:55.326Z,27.27
2022-08-22T12:04:47.441Z,27.16
2022-08-22T12:07:21.751Z,27.29
2022-08-22T12:10:04.997Z,27.45
2022-08-22T12:13:06.640Z,27.63
2022-08-22T12:16:07.755Z,27.92
2022-08-22T12:19:06.101Z,28.05
2022-08-22T12:22:16.564Z,28.08
2022-08-22T12:25:33.226Z,28.05
2022-08-22T12:28:30.206Z,27.92
2022-08-22T12:31:34.827Z,27.95
2022-08-22T12:34:55.020Z,27.94
2022-08-22T12:37:36.174Z,27.92
2022-08-22T12:40:57.011Z,27.95
2022-08-22T12:43:44.643Z,28.06
2022-08-22T12:46:16.446Z,28.21
2022-08-22T12:49:10.965Z,28.28
2022-08-22T12:52:14.405Z,28.30
2022-08-22T12:54:52.897Z,28.23
2022-08-22T12:58:08.856Z,28.17
2022-08-22T13:00:49.011Z,28.18
2022-08-22T13:03:35.384Z,28.19
2022-08-22T13:06:33.862Z,28.05
2022-08-22T13:09:11.073Z,27.82
2022-08-22T13:11:43.419Z,27.73
2022-08-22T13:14:21.954Z,27.53
2022-08-22T13:17:10.267Z,27.24
2022-08-22T13:20:03.103Z,27.05
2022-08-22T13:22:35.445Z,26.91
2022-08-22T13:25:26.390Z,26.77
2022-08-22T13:28:03.786Z,26.64
2022-08-22T13:30:40.204Z,26.62
2022-08-22T13:33:11.186Z,26.70
2022-08-22T13:36:00.725Z,26.72
2022-08-22T13:38:46.558Z,26.76
2022-08-22T13:41:24.697Z,26.92
2022-08-22T13:44:16.243Z,27.14
2022-08-22T13:47:04.191Z,27.27
2022-08-22T13:49:41.149Z,27.34
2022-08-22T13:52:38.155Z,27.39
2022-08-22T13:55:29.465Z,27.57
2022-08-22T13:58:11.328Z,27.74
2022-08-22T14:01:15.879Z,27.86
2022-08-22T14:03:54.669Z,28.19
2022-08-22T14:06:46.432Z,28.45
2022-08-22T14:09:54.546Z,28.66
2022-08-22T14:12:56.631Z,28.78
2022-08-22T14:15:32.331Z,28.90
2022-08-22T14:18:30.456Z,28.95
2022-08-22T14:21:48.412Z,29.01
2022-08-22T14:24:29.936Z,28.99
2022-08-22T14:27:06.673Z,28.98
2022-08-22T14:29:56.576Z,28.91
2022-08-22T14:32:25.125Z,28.93
2022-08-22T14:35:23.522Z,29.03
2022-08-22T14:38:46.334Z,29.27
2022-08-22T14:41:56.135Z,29.35
2022-08-22T14:44:31.157Z,29.32
2022-08-22T14:47:04.371Z,29.22
2022-08-22T14:49:58.836Z,28.98
2022-08-22T14:52:50.342Z,28.72
2022-08-22T14:55:28.182Z,28.73
2022-08-22T14:58:03.468Z,29.11
2022-08-22T15:00:39.841Z,29.51
2022-08-22T15:03:37.421Z,29.72
2022-08-22T15:06:07.291Z,29.65
2022-08-22T15:08:50.439Z,29.51
2022-08-22T15:11:17.232Z,29.45
2022-08-22T15:14:13.433Z,29.40
2022-08-22T15:16:50.666Z,29.29
2022-08-22T15:19:23.268Z,29.10
2022-08-22T15:21:51.301Z,28.94
2022-08-22T15:24:20.680Z,28.84
2022-08-22T15:26:55.464Z,28.77
2022-08-22T15:29:31.776Z,28.83
2022-08-22T15:32:03.206Z,28.94
2022-08-22T15:34:41.819Z,28.97
2022-08-22T15:37:18.029Z,28.94
2022-08-22T15:40:08.445Z,28.80
2022-08-22T15:42:48.839Z,28.70
2022-08-22T15:45:39.525Z,28.58
2022-08-22T15:48:26.567Z,28.66
2022-08-22T15:51:10.171Z,28.76
2022-08-22T15:54:24.937Z,28.97
2022-08-22T15:57:10.439Z,29.18
2022-08-22T15:59:54.114Z,29.35
2022-08-22T16:02:42.023Z,29.27
2022-08-22T16:05:11.575Z,29.02
2022-08-22T16:08:02.692Z,28.82
2022-08-22T16:10:56.041Z,28.62
2022-08-22T16:13:29.565Z,28.52
2022-08-22T16:16:08.316Z,28.49
2022-08-22T16:18:39.226Z,28.73
2022-08-22T16:21:13.252Z,28.93
2022-08-22T16:23:58.088Z,29.13
2022-08-22T16:26:24.818Z,29.30
2022-08-22T16:29:07.051Z,29.45
2022-08-22T16:31:45.999Z,29.65
2022-08-22T16:34:16.162Z,29.94
2022-08-22T16:37:23.393Z,30.10
2022-08-22T16:40:13.089Z,30.12
2022-08-22T16:42:46.776Z,30.22
2022-08-22T16:45:36.041Z,30.27
2022-08-22T16:48:33.557Z,30.18
2022-08-22T16:51:18.703Z,30.04
2022-08-22T16:54:12.240Z,29.81
2022-08-22T16:56:53.569Z,29.76
2022-08-22T16:59:48.815Z,29.62
2022-08-22T17:02:43.632Z,29.44
2022-08-22T17:05:32.315Z,29.37
2022-08-22T17:08:11.843Z,29.34
2022-08-22T17:11:01.631Z,29.31
2022-08-22T17:13:48.977Z,29.25
2022-08-22T17:17:01.466Z,29.05
2022-08-22T17:19:39.259Z,28.79
2022-08-22T17:22:22.603Z,28.58
2022-08-22T17:25:33.994Z,28.33
2022-08-22T17:28:09.842Z,28.02
2022-08-22T17:31:10.542Z,27.70
2022-08-22T17:34:18.566Z,27.41
2022-08-22T17:36:49.972Z,27.12
2022-08-22T17:39:55.933Z,26.88
2022-08-22T17:42:44.217Z,26.67
2022-08-22T17:45:47.042Z,26.51
2022-08-22T17:48:25.334Z,26.26
2022-08-22T17:51:19.266Z,26.11
2022-08-22T17:54:21.520Z,25.96
2022-08-22T17:57:55.584Z,25.84
2022-08-22T18:00:30.763Z,25.74
2022-08-22T18:03:32.309Z,25.67
2022-08-22T18:06:24.248Z,25.58
2022-08-22T18:09:13.628Z,25.46
2022-08-22T18:11:52.067Z,25.34
2022-08-22T18:14:46.485Z,25.26
2022-08-22T18:17:36.755Z,25.17
2022-08-22T18:20:21.197Z,25.07
2022-08-22T18:23:01.632Z,24.97
2022-08-22T18:25:40.747Z,24.90
2022-08-22T18:31:38.741Z,24.72
2022-08-22T18:34:24.560Z,24.64
2022-08-22T18:37:05.546Z,24.56
2022-08-22T18:39:50.077Z,24.49
2022-08-22T18:42:50.394Z,24.40
2022-08-22T18:45:46.809Z,24.32
2022-08-22T18:48:54.421Z,24.17
2022-08-22T18:51:38.680Z,24.04
2022-08-22T18:54:05.578Z,23.96
2022-08-22T18:57:22.716Z,23.89
2022-08-22T19:00:16.489Z,23.81
2022-08-22T19:02:57.668Z,23.77
2022-08-22T19:05:27.153Z,23.74
2022-08-22T19:07:59.986Z,23.74
2022-08-22T19:11:03.342Z,23.74
2022-08-22T19:14:08.626Z,23.75
2022-08-22T19:17:23.141Z,23.74
2022-08-22T19:20:14.634Z,23.73
2022-08-22T19:22:42.774Z,23.73
2022-08-22T19:25:28.555Z,23.74
2022-08-22T19:28:10.386Z,23.75
2022-08-22T19:31:14.930Z,23.72
2022-08-22T19:34:08.735Z,23.68
2022-08-22T19:36:36.176Z,23.66
2022-08-22T19:39:41.538Z,23.62
2022-08-22T19:42:27.786Z,23.59
2022-08-22T19:45:06.594Z,23.54
2022-08-22T19:47:43.457Z,23.50
2022-08-22T19:50:28.227Z,23.48
2022-08-22T19:53:25.069Z,23.44
2022-08-22T19:56:13.583Z,23.40
2022-08-22T19:58:59.491Z,23.35
2022-08-22T20:01:44.449Z,23.31
2022-08-22T20:04:40.721Z,23.28
2022-08-22T20:07:26.950Z,23.25
2022-08-22T20:10:20.724Z,23.18
2022-08-22T20:13:07.809Z,23.15
2022-08-22T20:16:19.037Z,23.13
2022-08-22T20:19:07.650Z,23.11
2022-08-22T20:22:00.021Z,23.05
2022-08-22T20:24:40.308Z,23.02
2022-08-22T20:27:27.803Z,22.99
2022-08-22T20:30:25.631Z,22.95
2022-08-22T20:32:59.670Z,22.93
2022-08-22T20:35:41.175Z,22.92
2022-08-22T20:38:15.621Z,22.89
2022-08-22T20:41:20.953Z,22.86
2022-08-22T20:43:58.436Z,22.85
2022-08-22T20:46:53.666Z,22.85
2022-08-22T20:49:32.489Z,22.83
2022-08-22T20:52:08.533Z,22.81
2022-08-22T20:54:40.855Z,22.78
2022-08-22T20:57:21.536Z,22.77
2022-08-22T20:59:51.402Z,22.75
2022-08-22T21:02:28.689Z,22.74
2022-08-22T21:05:11.221Z,22.69
2022-08-22T21:07:49.330Z,22.65
2022-08-22T21:10:46.367Z,22.62
2022-08-22T21:13:20.426Z,22.57
2022-08-22T21:16:10.928Z,22.56
2022-08-22T21:18:40.565Z,22.53
2022-08-22T21:21:29.609Z,22.51
2022-08-22T21:24:08.067Z,22.49
2022-08-22T21:26:45.192Z,22.46
2022-08-22T21:29:11.955Z,22.43
2022-08-22T21:31:46.334Z,22.40
2022-08-22T21:34:24.349Z,22.35
2022-08-22T21:36:53.994Z,22.27
2022-08-22T21:39:28.390Z,22.20
2022-08-22T21:42:00.991Z,22.14
2022-08-22T21:44:30.728Z,22.07
2022-08-22T21:47:30.873Z,22.01
2022-08-22T21:50:25.707Z,21.94
2022-08-22T21:52:55.287Z,21.84
2022-08-22T21:55:26.780Z,21.77
2022-08-22T21:58:11.991Z,21.69
2022-08-22T22:00:49.536Z,21.62
2022-08-22T22:03:25.474Z,21.57
2022-08-22T22:05:57.308Z,21.48
2022-08-22T22:08:29.167Z,21.42
2022-08-22T22:11:04.735Z,21.36
2022-08-22T22:13:35.317Z,21.32
2022-08-22T22:16:03.030Z,21.28
2022-08-22T22:18:35.621Z,21.22
2022-08-22T22:21:02.745Z,21.17
2022-08-22T22:23:29.942Z,21.11
2022-08-22T22:26:01.089Z,21.05
2022-08-22T22:28:40.148Z,20.99
2022-08-22T22:31:07.905Z,20.92
2022-08-22T22:33:39.600Z,20.87
2022-08-22T22:36:13.593Z,20.84
2022-08-22T22:38:41.059Z,20.81
2022-08-22T22:41:08.459Z,20.81
2022-08-22T22:43:35.378Z,20.80
2022-08-22T22:46:02.330Z,20.77
2022-08-22T22:48:29.403Z,20.74
2022-08-22T22:50:56.257Z,20.70
2022-08-22T22:53:38.100Z,20.65
2022-08-22T22:56:09.586Z,20.55
2022-08-22T22:58:38.465Z,20.49
2022-08-22T23:01:23.507Z,20.47
2022-08-22T23:03:56.287Z,20.45
2022-08-22T23:06:26.575Z,20.43
2022-08-22T23:08:54.413Z,20.42
2022-08-22T23:11:26.901Z,20.38
2022-08-22T23:13:54.664Z,20.34
2022-08-22T23:16:27.277Z,20.31
2022-08-22T23:18:55.318Z,20.28
2022-08-22T23:21:30.093Z,20.25
2022-08-22T23:24:00.666Z,20.22
2022-08-22T23:26:28.968Z,20.18
2022-08-22T23:28:57.390Z,20.16
2022-08-22T23:31:29.430Z,20.12
2022-08-22T23:34:00.942Z,20.09
2022-08-22T23:36:29.609Z,20.06
2022-08-22T23:38:57.127Z,20.04
2022-08-22T23:41:24.126Z,20.01
2022-08-22T23:43:54.500Z,19.97
2022-08-22T23:46:25.742Z,19.95
2022-08-22T23:48:53.350Z,19.91
2022-08-22T23:51:23.884Z,19.86
2022-08-22T23:53:57.624Z,19.83
2022-08-22T23:56:53.613Z,19.81
2022-08-22T23:59:30.647Z,19.78
